Time;durP1;ratioP1;P1;durP2;ratioP2;P2;SDS_P1;SDS_P2;PMS_P1;PMS_P2;Temp;Humidity;BMP_temperature;BMP_pressure;BME280_temperature;BME280_humidity;BME280_pressure;Samples;Min_cycle;Max_cycle;Signal;HPM_P1;HPM_P2
2024/03/10 00:01:05;;;;;;;2.78;1.70;;;8.50;77.10;;;;;;5136835;28;20046;-73
2024/03/10 00:03:31;;;;;;;3.08;1.88;;;8.60;77.10;;;;;;5100815;28;20035;-73
2024/03/10 00:05:56;;;;;;;2.60;1.40;;;8.60;77.10;;;;;;5136477;28;20091;-74
2024/03/10 00:08:23;;;;;;;3.13;1.77;;;8.60;77.20;;;;;;5136443;28;20034;-74
2024/03/10 00:10:49;;;;;;;4.22;2.20;;;8.60;77.20;;;;;;5118143;28;20035;-74
2024/03/10 00:13:14;;;;;;;2.72;1.55;;;8.50;77.10;;;;;;5114741;28;20039;-74
2024/03/10 00:15:40;;;;;;;2.45;1.65;;;8.60;77.10;;;;;;5097359;28;20122;-74
2024/03/10 00:18:06;;;;;;;3.75;1.55;;;8.60;77.10;;;;;;5115496;28;20047;-74
2024/03/10 00:20:32;;;;;;;3.97;2.08;;;8.60;77.20;;;;;;5083877;28;20047;-75
2024/03/10 00:22:58;;;;;;;3.95;2.00;;;8.60;77.20;;;;;;5136486;28;20047;-74
2024/03/10 00:25:23;;;;;;;2.67;1.58;;;8.60;77.20;;;;;;5118288;28;20501;-74
2024/03/10 00:27:50;;;;;;;3.47;2.15;;;8.50;77.20;;;;;;5113878;28;20134;-74
2024/03/10 00:30:15;;;;;;;3.65;1.85;;;8.50;77.30;;;;;;5115373;28;20036;-74
2024/03/10 00:32:41;;;;;;;4.47;1.70;;;8.50;77.30;;;;;;5115254;28;20040;-74
2024/03/10 00:35:08;;;;;;;4.13;1.88;;;8.50;77.30;;;;;;5113799;28;20131;-74
2024/03/10 00:37:34;;;;;;;4.28;1.95;;;8.60;77.40;;;;;;5115026;28;20043;-74
2024/03/10 00:40:01;;;;;;;3.67;2.10;;;8.50;77.30;;;;;;5114967;28;20383;-73
2024/03/10 00:42:27;;;;;;;3.35;1.90;;;8.50;77.30;;;;;;5114189;28;20055;-74
2024/03/10 00:44:53;;;;;;;3.92;2.20;;;8.50;77.30;;;;;;5115114;28;20050;-74
2024/03/10 00:47:20;;;;;;;4.18;1.95;;;8.50;77.30;;;;;;5113963;28;20052;-74
2024/03/10 00:49:46;;;;;;;3.38;1.73;;;8.50;77.30;;;;;;5113751;28;20491;-74
2024/03/10 00:52:12;;;;;;;3.72;2.10;;;8.50;77.90;;;;;;5115537;28;20031;-74
2024/03/10 00:54:38;;;;;;;3.60;1.83;;;8.50;77.30;;;;;;5099986;28;20416;-74
2024/03/10 00:57:05;;;;;;;4.07;2.00;;;8.50;77.40;;;;;;5135698;28;20074;-74
2024/03/10 00:59:31;;;;;;;3.20;1.90;;;8.40;77.30;;;;;;5116766;28;20050;-74
2024/03/10 01:01:56;;;;;;;4.32;2.20;;;8.50;77.40;;;;;;5113360;28;20039;-74
2024/03/10 01:04:22;;;;;;;3.33;1.90;;;8.50;77.40;;;;;;5079374;28;20055;-74
2024/03/10 01:06:48;;;;;;;3.38;1.85;;;8.50;77.40;;;;;;5114792;28;20127;-74
2024/03/10 01:09:18;;;;;;;3.95;1.95;;;8.40;77.40;;;;;;5115052;28;20059;-74
2024/03/10 01:11:47;;;;;;;3.95;2.08;;;8.40;77.40;;;;;;5112909;28;20486;-75
2024/03/10 01:14:13;;;;;;;3.15;1.85;;;8.50;77.40;;;;;;5096605;28;20483;-74
2024/03/10 01:16:40;;;;;;;4.25;2.25;;;8.40;77.40;;;;;;5114275;28;20043;-74
2024/03/10 01:19:09;;;;;;;4.47;2.30;;;8.40;77.40;;;;;;5114440;28;20078;-74
2024/03/10 01:21:35;;;;;;;3.95;2.00;;;8.30;77.40;;;;;;5112752;28;20062;-74
2024/03/10 01:24:01;;;;;;;4.93;2.40;;;8.40;77.50;;;;;;5114470;28;20040;-74
2024/03/10 01:26:27;;;;;;;4.60;2.25;;;8.40;77.50;;;;;;5114044;28;20044;-73
2024/03/10 01:28:53;;;;;;;4.25;2.00;;;8.30;77.50;;;;;;5114548;28;20044;-74
2024/03/10 01:31:19;;;;;;;5.00;2.00;;;8.30;77.50;;;;;;5114029;28;20043;-75
2024/03/10 01:33:44;;;;;;;4.15;2.03;;;8.40;77.60;;;;;;5114080;28;20126;-74
2024/03/10 01:36:11;;;;;;;5.10;2.53;;;8.30;77.50;;;;;;5114129;28;20032;-74
2024/03/10 01:38:37;;;;;;;3.97;2.00;;;8.30;77.60;;;;;;5113994;28;20488;-73
2024/03/10 01:41:03;;;;;;;5.25;1.98;;;8.30;77.60;;;;;;5114094;28;20062;-74
2024/03/10 01:43:28;;;;;;;4.50;2.30;;;8.30;77.70;;;;;;5114392;28;20471;-74
2024/03/10 01:46:06;;;;;;;4.07;2.15;;;8.30;78.40;;;;;;5114061;28;20055;-74
2024/03/10 01:48:37;;;;;;;3.22;1.80;;;8.20;77.70;;;;;;5113090;28;20047;-74
2024/03/10 01:51:04;;;;;;;3.67;1.95;;;8.20;77.80;;;;;;5112476;28;20490;-74
2024/03/10 01:53:31;;;;;;;4.50;2.40;;;8.20;77.80;;;;;;5113945;28;20062;-74
2024/03/10 01:55:59;;;;;;;3.22;2.03;;;8.20;77.80;;;;;;5114125;28;20046;-73
2024/03/10 01:58:27;;;;;;;2.95;1.98;;;8.20;77.90;;;;;;5112652;28;20039;-73
2024/03/10 02:00:53;;;;;;;3.33;1.80;;;8.10;77.90;;;;;;5110131;28;20058;-74
2024/03/10 02:03:20;;;;;;;4.70;2.45;;;8.10;77.80;;;;;;5114096;28;20036;-74
2024/03/10 02:05:46;;;;;;;3.88;2.05;;;8.10;78.50;;;;;;5113722;28;20491;-73
2024/03/10 02:08:14;;;;;;;5.00;2.10;;;8.10;77.90;;;;;;5112116;28;20051;-74
2024/03/10 02:10:46;;;;;;;4.60;2.10;;;8.10;77.90;;;;;;5113348;28;20177;-74
2024/03/10 02:13:13;;;;;;;2.95;1.85;;;8.10;77.90;;;;;;5095676;28;21145;-74
2024/03/10 02:15:38;;;;;;;3.72;2.10;;;8.10;78.00;;;;;;5113184;28;20035;-74
2024/03/10 02:18:05;;;;;;;4.43;2.30;;;8.10;78.00;;;;;;5094914;28;20161;-74
2024/03/10 02:20:32;;;;;;;4.63;2.10;;;8.10;78.00;;;;;;5112060;28;20122;-74
2024/03/10 02:22:59;;;;;;;3.72;1.98;;;8.10;78.00;;;;;;5111837;28;20538;-74
2024/03/10 02:25:34;;;;;;;3.85;1.95;;;8.10;78.00;;;;;;5113221;28;20389;-73
2024/03/10 02:28:09;;;;;;;4.28;2.45;;;8.00;78.00;;;;;;5113147;28;20058;-74
2024/03/10 02:30:54;;;;;;;5.10;2.30;;;8.10;78.00;;;;;;5095981;28;20486;-74
2024/03/10 02:49:23;;;;;;;3.42;2.20;;;8.00;78.00;;;;;;5112940;28;20032;-73
2024/03/10 02:51:49;;;;;;;4.25;2.20;;;8.00;78.00;;;;;;5113440;28;20096;-74
2024/03/10 02:54:15;;;;;;;3.90;2.08;;;8.00;78.10;;;;;;5113199;28;20102;-74
2024/03/10 02:56:41;;;;;;;6.00;2.85;;;8.00;78.10;;;;;;5094718;28;20044;-73
2024/03/10 02:59:06;;;;;;;4.85;2.08;;;8.00;78.10;;;;;;5111375;28;20376;-73
2024/03/10 03:01:37;;;;;;;3.60;1.88;;;7.90;78.10;;;;;;5094725;28;20510;-74
2024/03/10 03:04:04;;;;;;;3.25;1.73;;;8.00;78.20;;;;;;5113152;28;20046;-73
2024/03/10 03:06:30;;;;;;;3.80;2.15;;;8.00;78.20;;;;;;5112907;28;20035;-73
2024/03/10 03:08:56;;;;;;;4.38;2.08;;;7.90;78.20;;;;;;5112872;28;20043;-73
2024/03/10 03:11:22;;;;;;;3.95;2.00;;;8.00;78.30;;;;;;5111144;28;20032;-73
2024/03/10 03:13:48;;;;;;;3.35;2.10;;;7.90;78.20;;;;;;5113133;28;20035;-73
2024/03/10 03:16:14;;;;;;;4.70;2.50;;;7.90;78.30;;;;;;5112979;28;20520;-74
2024/03/10 03:18:40;;;;;;;4.75;2.40;;;7.90;78.30;;;;;;5094333;28;20047;-75
2024/03/10 03:21:08;;;;;;;4.32;2.50;;;7.90;78.30;;;;;;5111063;28;20058;-74
2024/03/10 03:23:33;;;;;;;5.70;2.72;;;7.90;78.20;;;;;;5111127;28;20054;-74
2024/03/10 03:25:59;;;;;;;6.20;3.05;;;7.90;78.30;;;;;;5110822;28;20161;-74
2024/03/10 03:28:25;;;;;;;4.68;2.53;;;7.90;78.20;;;;;;5110077;28;20044;-75
2024/03/10 03:30:50;;;;;;;4.03;2.28;;;7.90;78.20;;;;;;5112618;28;20114;-74
2024/03/10 03:33:16;;;;;;;3.83;2.08;;;7.90;78.30;;;;;;5131460;28;20510;-74
2024/03/10 03:35:41;;;;;;;4.13;2.30;;;7.90;78.30;;;;;;5114388;28;20051;-74
2024/03/10 03:38:09;;;;;;;4.43;2.33;;;7.90;78.30;;;;;;5114259;28;20047;-73
2024/03/10 03:40:35;;;;;;;4.93;2.60;;;7.80;78.30;;;;;;5132397;28;20118;-73
2024/03/10 03:43:00;;;;;;;5.60;2.80;;;7.80;78.30;;;;;;5133030;28;20495;-74
2024/03/10 03:45:26;;;;;;;4.20;2.30;;;7.80;78.30;;;;;;5110938;28;20054;-74
2024/03/10 03:47:52;;;;;;;4.80;2.40;;;7.80;78.40;;;;;;5111968;28;20051;-74
2024/03/10 03:50:18;;;;;;;4.05;2.33;;;7.80;78.40;;;;;;5112481;28;20126;-74
2024/03/10 03:52:44;;;;;;;4.15;2.10;;;7.80;78.40;;;;;;5110575;28;20039;-74
2024/03/10 03:55:10;;;;;;;4.35;2.25;;;7.80;78.40;;;;;;5112382;28;20449;-74
2024/03/10 03:57:36;;;;;;;3.85;2.13;;;7.80;78.50;;;;;;5111851;28;20105;-74
2024/03/10 04:00:05;;;;;;;5.05;2.50;;;7.80;78.50;;;;;;5111866;28;20039;-74
2024/03/10 04:02:32;;;;;;;4.32;2.25;;;7.80;78.60;;;;;;5110670;28;20048;-73
2024/03/10 04:04:57;;;;;;;3.47;1.98;;;7.70;78.50;;;;;;5110431;28;20043;-74
2024/03/10 04:07:23;;;;;;;4.35;2.42;;;7.70;78.60;;;;;;5110465;28;20122;-74
2024/03/10 04:09:49;;;;;;;4.63;2.13;;;7.70;78.60;;;;;;5110503;28;20109;-73
2024/03/10 04:12:15;;;;;;;4.93;2.53;;;7.70;78.60;;;;;;5111930;28;20047;-74
2024/03/10 04:14:41;;;;;;;4.07;1.90;;;7.70;78.70;;;;;;5110395;28;20028;-74
2024/03/10 04:17:07;;;;;;;4.65;2.50;;;7.60;78.70;;;;;;5112196;28;20543;-75
2024/03/10 04:19:33;;;;;;;4.57;2.38;;;7.60;78.80;;;;;;5111891;28;20035;-74
2024/03/10 04:21:59;;;;;;;4.50;2.30;;;7.60;78.70;;;;;;5110112;28;20047;-74
2024/03/10 04:24:24;;;;;;;5.03;2.67;;;7.60;78.80;;;;;;5110243;28;20398;-74
2024/03/10 04:26:50;;;;;;;5.03;2.20;;;7.60;78.80;;;;;;5111663;28;20039;-74
2024/03/10 04:29:16;;;;;;;4.07;2.38;;;7.50;78.90;;;;;;5110482;28;20031;-74
2024/03/10 04:31:41;;;;;;;5.00;2.53;;;7.50;78.90;;;;;;5110529;28;20055;-74
2024/03/10 04:34:10;;;;;;;4.63;2.70;;;7.50;78.90;;;;;;5111629;28;20533;-74
2024/03/10 04:36:36;;;;;;;5.40;2.90;;;7.40;78.90;;;;;;5111766;28;20402;-74
2024/03/10 04:39:02;;;;;;;5.10;2.50;;;7.40;79.00;;;;;;5112594;28;20046;-74
2024/03/10 04:41:28;;;;;;;4.57;2.60;;;7.40;79.00;;;;;;5114913;28;20044;-74
2024/03/10 04:43:54;;;;;;;4.80;2.65;;;7.30;79.00;;;;;;5113629;28;20040;-73
2024/03/10 04:46:20;;;;;;;5.75;2.90;;;7.30;79.10;;;;;;5096918;28;20479;-73
2024/03/10 04:48:47;;;;;;;4.72;2.58;;;7.30;79.10;;;;;;5096227;28;20039;-74
2024/03/10 04:51:14;;;;;;;4.82;2.47;;;7.30;79.20;;;;;;5096487;28;20124;-73
2024/03/10 04:53:42;;;;;;;3.95;2.33;;;7.30;79.20;;;;;;5096361;28;20202;-74
2024/03/10 04:56:12;;;;;;;4.63;2.47;;;7.20;79.10;;;;;;5114793;28;20126;-74
2024/03/10 04:58:39;;;;;;;4.53;2.25;;;7.20;79.20;;;;;;5114939;28;20394;-74
2024/03/10 05:01:08;;;;;;;5.30;2.80;;;7.20;79.20;;;;;;5096320;28;20040;-74
2024/03/10 05:03:37;;;;;;;5.40;2.85;;;7.20;79.20;;;;;;5135474;28;20046;-74
2024/03/10 05:06:05;;;;;;;4.90;2.63;;;7.20;79.30;;;;;;5135356;28;20394;-74
2024/03/10 05:08:31;;;;;;;4.88;2.90;;;7.20;79.20;;;;;;5135198;28;20039;-74
2024/03/10 05:10:56;;;;;;;4.28;2.47;;;7.20;79.30;;;;;;5116727;28;20521;-75
2024/03/10 05:13:22;;;;;;;4.40;2.70;;;7.20;79.20;;;;;;5135330;28;20062;-74
2024/03/10 05:15:48;;;;;;;6.30;3.15;;;7.20;79.20;;;;;;5113380;28;20386;-73
2024/03/10 05:18:15;;;;;;;4.63;2.45;;;7.10;79.10;;;;;;5096236;28;20074;-74
2024/03/10 05:20:41;;;;;;;5.05;2.70;;;7.10;79.10;;;;;;5113405;28;20071;-74
2024/03/10 05:23:06;;;;;;;5.13;2.55;;;7.20;79.20;;;;;;5115003;28;20498;-74
2024/03/10 05:25:32;;;;;;;5.43;2.65;;;7.10;79.70;;;;;;5113692;28;20126;-75
2024/03/10 05:27:57;;;;;;;4.20;2.60;;;7.10;79.10;;;;;;5114407;28;20437;-74
2024/03/10 05:30:23;;;;;;;6.35;3.22;;;7.10;79.10;;;;;;5113626;28;20506;-74
2024/03/10 05:32:49;;;;;;;5.05;2.78;;;7.10;79.10;;;;;;5113630;28;20084;-75
2024/03/10 05:35:15;;;;;;;5.63;3.00;;;7.10;79.10;;;;;;5114219;28;20039;-74
2024/03/10 05:37:41;;;;;;;6.28;3.40;;;7.10;79.10;;;;;;5095913;28;20035;-74
2024/03/10 05:40:08;;;;;;;5.85;3.05;;;7.00;79.10;;;;;;5114217;28;20069;-74
2024/03/10 05:42:34;;;;;;;6.10;3.20;;;7.10;79.10;;;;;;5113022;28;20497;-74
2024/03/10 05:45:02;;;;;;;5.65;2.78;;;7.10;79.10;;;;;;5114892;28;20059;-74
2024/03/10 05:47:29;;;;;;;5.93;3.10;;;7.10;79.10;;;;;;5114204;28;20505;-74
2024/03/10 05:49:55;;;;;;;5.13;2.65;;;7.00;79.00;;;;;;5112622;28;20053;-74
2024/03/10 05:52:21;;;;;;;4.90;2.55;;;7.00;79.00;;;;;;5113798;28;20113;-74
2024/03/10 05:54:47;;;;;;;5.50;2.92;;;7.10;79.10;;;;;;5114140;28;20048;-74
2024/03/10 05:57:14;;;;;;;4.60;2.67;;;7.10;79.00;;;;;;5095834;28;20035;-73
2024/03/10 05:59:43;;;;;;;4.93;2.42;;;7.10;79.00;;;;;;5077476;28;20495;-74
2024/03/10 06:02:13;;;;;;;5.38;2.58;;;7.00;79.00;;;;;;5095520;28;20044;-75
2024/03/10 06:04:38;;;;;;;6.38;3.10;;;7.10;79.10;;;;;;5096225;28;20034;-74
2024/03/10 06:07:05;;;;;;;6.43;2.97;;;7.00;79.10;;;;;;5113720;28;20150;-74
2024/03/10 06:09:34;;;;;;;6.32;3.03;;;7.00;79.10;;;;;;5113887;28;20031;-75
2024/03/10 06:12:01;;;;;;;6.15;2.85;;;7.00;79.10;;;;;;5096050;28;20115;-74
2024/03/10 06:14:28;;;;;;;6.05;3.47;;;7.00;79.00;;;;;;5093628;28;20031;-75
2024/03/10 06:16:56;;;;;;;5.97;2.97;;;7.00;79.10;;;;;;5113781;28;20406;-74
2024/03/10 06:27:19;;;;;;;5.20;2.85;;;6.90;79.10;;;;;;5097547;28;20062;-74
2024/03/10 06:29:45;;;;;;;5.80;3.00;;;6.90;79.10;;;;;;5112171;28;20044;-74
2024/03/10 06:32:11;;;;;;;5.68;2.95;;;7.00;79.10;;;;;;5112760;28;20039;-75
2024/03/10 06:34:37;;;;;;;5.25;2.88;;;7.00;79.10;;;;;;5112400;28;20497;-74
2024/03/10 06:37:02;;;;;;;5.28;2.65;;;7.00;79.00;;;;;;5113450;28;20426;-74
2024/03/10 06:39:28;;;;;;;5.45;2.80;;;7.00;79.00;;;;;;5113739;28;20046;-74
2024/03/10 06:41:54;;;;;;;4.78;2.60;;;7.00;79.10;;;;;;5113381;28;20483;-74
2024/03/10 06:44:21;;;;;;;5.28;2.90;;;7.00;78.90;;;;;;5111983;28;20043;-75
2024/03/10 06:46:47;;;;;;;4.68;2.47;;;7.10;78.90;;;;;;5113191;28;20048;-73
2024/03/10 06:49:14;;;;;;;5.15;2.70;;;7.10;78.90;;;;;;5113698;28;20031;-74
2024/03/10 06:51:40;;;;;;;5.55;2.80;;;7.10;78.80;;;;;;5113458;28;20047;-76
2024/03/10 06:54:05;;;;;;;5.43;2.63;;;7.20;78.90;;;;;;5094717;28;20386;-74
2024/03/10 06:56:32;;;;;;;4.10;2.60;;;7.10;78.80;;;;;;5112322;28;20126;-74
2024/03/10 06:58:58;;;;;;;6.80;3.03;;;7.10;78.70;;;;;;5112066;28;20040;-74
2024/03/10 07:01:24;;;;;;;5.63;2.78;;;7.20;78.80;;;;;;5077811;28;20039;-74
2024/03/10 07:03:49;;;;;;;5.57;2.78;;;7.20;78.70;;;;;;5111611;28;20046;-74
2024/03/10 07:06:15;;;;;;;5.95;2.85;;;7.20;78.70;;;;;;5112260;28;20039;-74
2024/03/10 07:08:42;;;;;;;5.07;2.60;;;7.30;78.70;;;;;;5112690;28;20048;-75
2024/03/10 07:11:10;;;;;;;4.80;2.58;;;7.20;78.60;;;;;;5112770;28;20074;-75
2024/03/10 07:13:37;;;;;;;5.15;2.78;;;7.20;78.60;;;;;;5111465;28;20096;-74
2024/03/10 07:16:04;;;;;;;5.25;2.67;;;7.30;78.60;;;;;;5113288;28;20047;-73
2024/03/10 07:18:31;;;;;;;5.32;2.50;;;7.30;78.60;;;;;;5111477;28;20050;-74
2024/03/10 07:20:57;;;;;;;4.88;2.40;;;7.30;78.60;;;;;;5113082;28;20035;-74
2024/03/10 07:23:23;;;;;;;4.07;2.30;;;7.30;78.60;;;;;;5111795;28;20047;-74
2024/03/10 07:25:49;;;;;;;5.45;2.72;;;7.40;78.60;;;;;;5077502;28;20398;-73
2024/03/10 07:28:15;;;;;;;4.00;2.30;;;7.40;78.60;;;;;;5111209;28;20040;-74
2024/03/10 07:30:40;;;;;;;4.75;2.33;;;7.40;78.60;;;;;;5112342;28;20032;-74
2024/03/10 07:33:06;;;;;;;5.13;2.88;;;7.40;78.50;;;;;;5111190;28;20051;-74
2024/03/10 07:35:32;;;;;;;6.88;3.17;;;7.40;78.50;;;;;;5111253;28;20058;-74
2024/03/10 07:37:57;;;;;;;6.47;2.83;;;7.40;78.50;;;;;;5110973;28;20432;-73
2024/03/10 07:40:24;;;;;;;5.88;2.70;;;7.50;78.50;;;;;;5094359;28;20036;-74
2024/03/10 07:42:50;;;;;;;5.10;2.65;;;7.50;78.60;;;;;;5112877;28;20063;-73
2024/03/10 07:45:19;;;;;;;4.70;2.40;;;7.60;78.60;;;;;;5112577;28;20040;-73
2024/03/10 07:47:46;;;;;;;4.70;2.42;;;7.60;78.50;;;;;;5112213;28;20130;-73
2024/03/10 07:50:13;;;;;;;4.68;2.20;;;7.70;78.40;;;;;;5112818;28;20092;-73
2024/03/10 07:52:40;;;;;;;4.90;2.50;;;7.70;78.90;;;;;;5112084;28;20070;-73
2024/03/10 07:55:06;;;;;;;4.97;2.80;;;7.90;78.20;;;;;;5112764;28;20502;-74
2024/03/10 07:57:33;;;;;;;4.97;2.42;;;8.10;78.10;;;;;;5110702;28;20498;-73
2024/03/10 08:00:01;;;;;;;4.70;2.60;;;8.20;77.90;;;;;;5112097;28;20048;-73
2024/03/10 08:02:27;;;;;;;5.65;2.65;;;8.20;77.80;;;;;;5110912;28;20048;-73
2024/03/10 08:04:53;;;;;;;5.22;2.58;;;8.40;77.60;;;;;;5112298;28;20043;-73
2024/03/10 08:07:19;;;;;;;4.13;2.15;;;8.50;77.40;;;;;;5110611;28;20067;-73
2024/03/10 08:09:44;;;;;;;5.47;2.28;;;8.50;77.20;;;;;;5110820;28;20490;-73
2024/03/10 08:12:11;;;;;;;3.95;2.00;;;8.70;77.00;;;;;;5112634;28;20378;-73
2024/03/10 08:14:38;;;;;;;4.43;2.20;;;9.00;76.80;;;;;;5113681;28;20038;-74
2024/03/10 08:17:05;;;;;;;5.32;2.70;;;9.00;76.70;;;;;;5114429;28;20063;-74
2024/03/10 08:19:32;;;;;;;4.03;2.33;;;9.10;76.50;;;;;;5114097;28;20043;-74
2024/03/10 08:21:58;;;;;;;4.95;2.58;;;9.20;76.40;;;;;;5115540;28;20443;-74
2024/03/10 08:24:25;;;;;;;4.82;2.42;;;9.30;76.30;;;;;;5114688;28;20466;-74
2024/03/10 08:26:53;;;;;;;4.60;2.28;;;9.40;76.20;;;;;;5115247;28;20050;-75
2024/03/10 08:29:19;;;;;;;5.00;2.70;;;9.40;76.10;;;;;;5115648;28;20452;-74
2024/03/10 08:31:45;;;;;;;4.53;2.60;;;9.40;76.10;;;;;;5113989;28;20048;-74
2024/03/10 08:34:11;;;;;;;3.63;2.15;;;9.30;76.20;;;;;;5115416;28;20031;-73
2024/03/10 08:36:39;;;;;;;5.32;2.70;;;9.30;76.30;;;;;;5115123;28;20093;-76
2024/03/10 08:39:08;;;;;;;5.60;2.83;;;9.30;76.50;;;;;;5114016;28;20043;-74
2024/03/10 08:41:34;;;;;;;4.65;2.75;;;9.30;76.50;;;;;;5115279;28;20073;-74
2024/03/10 08:44:03;;;;;;;4.10;2.20;;;9.20;76.70;;;;;;5115052;28;20063;-74
2024/03/10 08:46:29;;;;;;;4.20;2.30;;;9.20;76.80;;;;;;5114218;28;20093;-74
2024/03/10 08:48:56;;;;;;;4.50;2.60;;;9.30;76.90;;;;;;5096983;28;20506;-74
2024/03/10 08:51:22;;;;;;;4.70;2.53;;;9.40;76.90;;;;;;5113419;28;20051;-73
2024/03/10 08:53:49;;;;;;;3.90;2.30;;;9.40;76.80;;;;;;5115151;28;20039;-73
2024/03/10 08:56:14;;;;;;;4.57;2.47;;;9.50;76.70;;;;;;5112043;28;20050;-74
2024/03/10 08:58:41;;;;;;;4.65;2.15;;;9.60;76.60;;;;;;5114682;28;20044;-73
2024/03/10 09:01:07;;;;;;;4.55;2.65;;;9.70;76.30;;;;;;5112994;28;20063;-74
2024/03/10 09:03:34;;;;;;;3.90;2.40;;;9.80;76.20;;;;;;5113900;28;20036;-73
2024/03/10 09:06:00;;;;;;;4.22;2.45;;;9.90;76.00;;;;;;5114869;28;20040;-74
2024/03/10 09:08:26;;;;;;;5.10;2.60;;;9.90;76.00;;;;;;5115202;28;20127;-74
2024/03/10 09:10:52;;;;;;;5.43;2.70;;;10.00;76.00;;;;;;5114706;28;20521;-73
2024/03/10 09:13:19;;;;;;;5.32;2.47;;;10.00;76.00;;;;;;5113491;28;20043;-74
2024/03/10 09:15:45;;;;;;;4.32;2.45;;;10.00;75.90;;;;;;5113288;28;20464;-74
2024/03/10 09:18:11;;;;;;;4.68;2.70;;;10.20;75.90;;;;;;5114553;28;20126;-73
2024/03/10 09:20:39;;;;;;;6.10;2.85;;;10.30;75.80;;;;;;5114587;28;20119;-74
2024/03/10 09:23:05;;;;;;;4.38;2.38;;;10.30;75.60;;;;;;5114373;28;20046;-73
2024/03/10 09:25:31;;;;;;;4.55;2.50;;;10.30;75.50;;;;;;5111571;28;20131;-73
2024/03/10 09:27:57;;;;;;;4.20;2.40;;;10.40;75.70;;;;;;5113093;28;20063;-73
2024/03/10 09:30:24;;;;;;;5.20;2.78;;;10.40;75.60;;;;;;5114531;28;20066;-73
2024/03/10 09:32:54;;;;;;;3.72;2.35;;;10.50;75.60;;;;;;5114619;28;20444;-74
2024/03/10 09:35:24;;;;;;;4.72;2.70;;;10.50;75.60;;;;;;5114861;28;20036;-73
2024/03/10 09:37:51;;;;;;;3.92;2.10;;;10.60;75.50;;;;;;5109998;28;20155;-73
2024/03/10 09:40:18;;;;;;;5.03;2.63;;;10.70;75.50;;;;;;5112567;28;20479;-74
2024/03/10 09:42:47;;;;;;;4.72;2.38;;;10.70;75.50;;;;;;5114223;28;20031;-73
2024/03/10 09:45:15;;;;;;;5.32;2.65;;;10.80;75.40;;;;;;5112687;28;20044;-73
2024/03/10 09:47:45;;;;;;;4.80;2.08;;;10.90;75.30;;;;;;5114066;28;20112;-74
2024/03/10 09:50:11;;;;;;;4.05;2.40;;;11.00;75.20;;;;;;5112822;28;20044;-73
2024/03/10 09:52:38;;;;;;;4.55;2.65;;;11.10;75.00;;;;;;5114031;28;20075;-74
2024/03/10 09:55:06;;;;;;;4.07;2.47;;;11.20;74.80;;;;;;5112481;28;20128;-72
2024/03/10 09:57:34;;;;;;;6.15;3.00;;;11.30;74.90;;;;;;5113989;28;20047;-75
2024/03/10 10:00:12;;;;;;;5.20;2.95;;;11.20;74.70;;;;;;5114463;28;20043;-73
2024/03/10 10:02:42;;;;;;;5.13;2.88;;;11.30;74.70;;;;;;5113912;28;20058;-73
2024/03/10 10:05:24;;;;;;;4.72;2.70;;;11.30;74.80;;;;;;5113722;28;20104;-74
2024/03/10 10:07:52;;;;;;;8.07;3.20;;;11.30;74.90;;;;;;5114171;28;20040;-73
2024/03/10 10:10:20;;;;;;;5.38;3.00;;;11.30;74.90;;;;;;5095718;28;20059;-73
2024/03/10 10:12:49;;;;;;;3.80;2.30;;;11.30;74.80;;;;;;5095230;28;20406;-74
2024/03/10 10:15:17;;;;;;;4.93;2.80;;;11.40;74.80;;;;;;5113902;28;20130;-72
2024/03/10 10:17:57;;;;;;;5.00;2.90;;;11.40;74.90;;;;;;5113927;28;20065;-72
2024/03/10 10:20:28;;;;;;;4.45;2.72;;;11.40;74.80;;;;;;5112583;28;20051;-73
2024/03/10 10:22:55;;;;;;;5.18;2.80;;;11.50;74.90;;;;;;5112101;28;20059;-72
2024/03/10 10:25:22;;;;;;;4.70;2.75;;;11.60;74.90;;;;;;5112694;28;20406;-72
2024/03/10 10:27:49;;;;;;;5.35;3.03;;;11.50;74.60;;;;;;5113623;28;20044;-74
2024/03/10 10:30:25;;;;;;;4.80;2.83;;;11.50;74.60;;;;;;5111776;28;20043;-72
2024/03/10 10:33:12;;;;;;;5.63;2.90;;;11.50;74.90;;;;;;5113786;28;20039;-73
2024/03/10 10:35:42;;;;;;;5.95;3.15;;;11.60;74.80;;;;;;5132210;28;20039;-73
2024/03/10 10:38:12;;;;;;;5.80;3.50;;;11.60;74.70;;;;;;5078544;28;20092;-74
2024/03/10 10:40:40;;;;;;;5.57;3.40;;;11.80;74.60;;;;;;5113746;28;20074;-72
2024/03/10 10:43:06;;;;;;;5.13;3.50;;;11.80;74.30;;;;;;5112016;28;20407;-73
2024/03/10 10:45:33;;;;;;;6.72;3.28;;;11.80;74.20;;;;;;5094948;28;20055;-72
2024/03/10 10:48:01;;;;;;;6.57;3.85;;;11.80;74.20;;;;;;5078010;28;20059;-72
2024/03/10 10:50:35;;;;;;;5.25;3.15;;;11.80;74.20;;;;;;5095055;28;20148;-72
2024/03/10 10:53:01;;;;;;;5.30;3.20;;;11.70;74.30;;;;;;5111809;28;20043;-74
2024/03/10 10:55:32;;;;;;;6.38;3.67;;;11.70;74.40;;;;;;5078070;28;20067;-78
2024/03/10 10:58:03;;;;;;;;;;;11.70;74.40;;;;;;5073747;28;20040;-77
2024/03/10 11:00:33;;;;;;;5.23;3.27;;;11.70;74.50;;;;;;5010050;28;19952;-76
2024/03/10 11:03:18;;;;;;;6.15;3.53;;;11.80;74.50;;;;;;4978113;28;20042;-75
2024/03/10 11:06:15;;;;;;;5.90;3.60;;;11.80;74.40;;;;;;4979644;28;20048;-74
2024/03/10 11:08:43;;;;;;;6.63;3.95;;;11.80;74.30;;;;;;4998086;28;20516;-74
2024/03/10 11:11:14;;;;;;;6.10;3.50;;;11.80;74.20;;;;;;5010760;28;20049;-74
2024/03/10 11:13:42;;;;;;;5.93;3.47;;;11.80;74.10;;;;;;4995092;28;20049;-74
2024/03/10 11:16:13;;;;;;;5.88;3.35;;;11.90;74.00;;;;;;4978143;28;20046;-74
2024/03/10 11:18:40;;;;;;;4.97;3.13;;;12.00;73.90;;;;;;4978208;28;20046;-73
2024/03/10 11:21:12;;;;;;;5.47;3.25;;;12.10;73.90;;;;;;5010388;28;20300;-72
2024/03/10 11:23:43;;;;;;;5.40;3.15;;;12.10;73.80;;;;;;4995013;28;20101;-73
2024/03/10 11:26:12;;;;;;;6.45;3.70;;;12.20;73.70;;;;;;5010452;28;20120;-72
2024/03/10 11:28:56;;;;;;;5.43;3.30;;;12.40;73.40;;;;;;4980436;28;20095;-73
2024/03/10 11:31:40;;;;;;;4.95;3.30;;;12.50;73.10;;;;;;5068987;28;20383;-74
2024/03/10 11:34:08;;;;;;;5.25;2.92;;;12.60;73.00;;;;;;5130298;28;20042;-73
2024/03/10 11:36:36;;;;;;;4.93;2.75;;;12.70;72.90;;;;;;5094650;28;20044;-73
2024/03/10 11:39:04;;;;;;;5.55;3.38;;;12.80;72.70;;;;;;5111256;28;20126;-75
2024/03/10 11:41:31;;;;;;;5.75;3.35;;;12.80;72.60;;;;;;5094667;28;20039;-73
2024/03/10 11:43:57;;;;;;;5.20;3.05;;;12.80;72.50;;;;;;5111508;28;20483;-73
2024/03/10 11:46:27;;;;;;;5.70;2.80;;;12.90;72.50;;;;;;5093727;28;20062;-73
2024/03/10 11:48:55;;;;;;;5.10;3.00;;;12.80;72.40;;;;;;5095156;28;20126;-73
2024/03/10 11:51:27;;;;;;;4.60;2.80;;;13.00;72.40;;;;;;5114582;28;20044;-73
2024/03/10 11:53:54;;;;;;;5.35;3.00;;;12.90;72.40;;;;;;5098688;28;20039;-74
2024/03/10 11:56:19;;;;;;;4.93;2.83;;;13.00;72.40;;;;;;5097716;28;20046;-75
2024/03/10 11:58:46;;;;;;;4.45;2.83;;;13.00;72.40;;;;;;5097494;28;20048;-75
2024/03/10 12:01:15;;;;;;;4.97;2.95;;;13.10;72.40;;;;;;5115998;28;20047;-73
2024/03/10 12:03:43;;;;;;;4.63;2.85;;;13.10;72.40;;;;;;5114871;28;20043;-74
2024/03/10 12:06:09;;;;;;;6.20;3.50;;;13.10;72.40;;;;;;5115891;28;20048;-73
2024/03/10 12:08:37;;;;;;;4.18;2.58;;;13.00;72.40;;;;;;5114415;28;20100;-74
2024/03/10 12:11:04;;;;;;;4.85;2.83;;;13.10;72.40;;;;;;5115751;28;20036;-73
2024/03/10 12:13:30;;;;;;;4.07;2.60;;;13.20;72.50;;;;;;5136434;28;20043;-73
2024/03/10 12:15:58;;;;;;;4.45;2.75;;;13.40;72.20;;;;;;5136051;28;20099;-75
2024/03/10 12:18:24;;;;;;;5.43;3.40;;;13.50;71.90;;;;;;5118037;28;20549;-74
2024/03/10 12:20:50;;;;;;;5.85;3.22;;;13.60;71.70;;;;;;5114905;28;20047;-74
2024/03/10 12:23:17;;;;;;;4.50;2.85;;;13.60;71.70;;;;;;5081810;28;20028;-73
2024/03/10 12:25:44;;;;;;;4.60;3.00;;;13.70;71.70;;;;;;5136225;28;20039;-73
2024/03/10 12:28:13;;;;;;;4.75;2.95;;;13.80;71.60;;;;;;5135722;28;20053;-74
2024/03/10 12:30:40;;;;;;;4.88;3.10;;;13.80;71.40;;;;;;5135785;28;20040;-75
2024/03/10 12:33:09;;;;;;;4.47;2.90;;;13.70;71.30;;;;;;5136127;28;20077;-73
2024/03/10 12:35:36;;;;;;;5.32;3.22;;;13.80;71.50;;;;;;5135635;28;20426;-75
2024/03/10 12:38:03;;;;;;;4.85;2.88;;;13.80;72.20;;;;;;5117482;28;20053;-73
2024/03/10 12:40:31;;;;;;;5.18;3.25;;;13.80;71.60;;;;;;5100192;28;20042;-73
2024/03/10 12:42:59;;;;;;;5.20;3.45;;;13.80;71.70;;;;;;5113828;28;20043;-74
2024/03/10 12:45:24;;;;;;;6.15;3.78;;;13.80;71.70;;;;;;5113393;28;20429;-73
2024/03/10 12:47:51;;;;;;;4.45;2.83;;;13.80;71.60;;;;;;5114723;28;20042;-73
2024/03/10 12:50:17;;;;;;;4.70;2.90;;;13.90;71.60;;;;;;5115044;28;20089;-74
2024/03/10 12:52:43;;;;;;;5.25;2.88;;;14.00;71.50;;;;;;5115085;28;20048;-73
2024/03/10 12:55:09;;;;;;;5.47;3.08;;;14.00;71.50;;;;;;5113522;28;20046;-73
2024/03/10 12:57:36;;;;;;;5.28;3.10;;;14.10;71.40;;;;;;5116750;28;20043;-74
2024/03/10 13:00:15;;;;;;;4.68;2.90;;;14.10;72.00;;;;;;5117043;28;20443;-75
2024/03/10 13:02:42;;;;;;;4.97;3.10;;;14.20;71.20;;;;;;5135065;28;20547;-73
2024/03/10 13:05:09;;;;;;;4.50;2.80;;;14.30;71.20;;;;;;5135534;28;20088;-73
2024/03/10 13:07:35;;;;;;;5.10;2.90;;;14.30;71.20;;;;;;5135380;28;20046;-73
2024/03/10 13:10:01;;;;;;;4.72;2.88;;;14.30;71.10;;;;;;5135265;28;20545;-74
2024/03/10 13:12:26;;;;;;;4.65;2.63;;;14.30;71.20;;;;;;5113932;28;20084;-73
2024/03/10 13:14:52;;;;;;;6.22;3.10;;;14.40;71.20;;;;;;5114644;28;20368;-73
2024/03/10 13:17:19;;;;;;;4.60;2.95;;;14.40;71.10;;;;;;5135009;28;20054;-74